sensor_id;sensor_type;location;lat;lon;timestamp;temperature;humidity
22321;DHT22;11328;53.928;18.522;2023-08-30T00:00:05;20.90;99.90
22321;DHT22;11328;53.928;18.522;2023-08-30T00:02:33;20.80;99.90
22321;DHT22;11328;53.928;18.522;2023-08-30T00:05:01;20.70;99.90
22321;DHT22;11328;53.928;18.522;2023-08-30T00:07:30;20.60;99.90
22321;DHT22;11328;53.928;18.522;2023-08-30T00:09:58;20.50;99.90
22321;DHT22;11328;53.928;18.522;2023-08-30T00:12:26;20.40;99.90
22321;DHT22;11328;53.928;18.522;2023-08-30T00:14:53;20.30;99.90
22321;DHT22;11328;53.928;18.522;2023-08-30T00:17:20;20.20;99.90
22321;DHT22;11328;53.928;18.522;2023-08-30T00:19:47;20.20;99.90
22321;DHT22;11328;53.928;18.522;2023-08-30T00:22:15;20.10;99.90
22321;DHT22;11328;53.928;18.522;2023-08-30T00:24:43;20.10;99.90
22321;DHT22;11328;53.928;18.522;2023-08-30T00:27:11;20.00;99.90
22321;DHT22;11328;53.928;18.522;2023-08-30T00:29:39;20.00;99.90
22321;DHT22;11328;53.928;18.522;2023-08-30T00:32:06;20.00;99.90
22321;DHT22;11328;53.928;18.522;2023-08-30T00:34:33;20.00;99.90
22321;DHT22;11328;53.928;18.522;2023-08-30T00:37:00;20.00;99.90
22321;DHT22;11328;53.928;18.522;2023-08-30T00:39:28;19.90;99.90
22321;DHT22;11328;53.928;18.522;2023-08-30T00:41:55;19.90;99.90
22321;DHT22;11328;53.928;18.522;2023-08-30T00:44:23;20.00;99.90
22321;DHT22;11328;53.928;18.522;2023-08-30T00:46:50;19.90;99.90
22321;DHT22;11328;53.928;18.522;2023-08-30T00:49:17;20.00;99.90
22321;DHT22;11328;53.928;18.522;2023-08-30T00:51:45;20.00;99.90
22321;DHT22;11328;53.928;18.522;2023-08-30T00:54:12;19.90;99.90
22321;DHT22;11328;53.928;18.522;2023-08-30T00:56:40;20.00;99.90
22321;DHT22;11328;53.928;18.522;2023-08-30T00:59:07;19.90;99.90
22321;DHT22;11328;53.928;18.522;2023-08-30T01:01:35;20.00;99.90
22321;DHT22;11328;53.928;18.522;2023-08-30T01:04:02;20.00;99.90
22321;DHT22;11328;53.928;18.522;2023-08-30T01:06:30;20.00;99.90
22321;DHT22;11328;53.928;18.522;2023-08-30T01:08:57;20.00;99.90
22321;DHT22;11328;53.928;18.522;2023-08-30T01:15:06;19.80;99.90
22321;DHT22;11328;53.928;18.522;2023-08-30T01:17:39;19.70;99.90
22321;DHT22;11328;53.928;18.522;2023-08-30T01:20:10;19.60;99.90
22321;DHT22;11328;53.928;18.522;2023-08-30T01:23:23;19.50;99.90
22321;DHT22;11328;53.928;18.522;2023-08-30T01:26:13;19.30;99.90
22321;DHT22;11328;53.928;18.522;2023-08-30T01:28:48;19.30;99.90
22321;DHT22;11328;53.928;18.522;2023-08-30T01:31:17;19.20;99.90
22321;DHT22;11328;53.928;18.522;2023-08-30T01:33:47;19.20;99.90
22321;DHT22;11328;53.928;18.522;2023-08-30T01:36:16;19.20;99.90
22321;DHT22;11328;53.928;18.522;2023-08-30T01:38:44;19.20;99.90
22321;DHT22;11328;53.928;18.522;2023-08-30T01:41:13;19.10;99.90
22321;DHT22;11328;53.928;18.522;2023-08-30T01:43:42;19.00;99.90
22321;DHT22;11328;53.928;18.522;2023-08-30T01:46:10;19.10;99.90
22321;DHT22;11328;53.928;18.522;2023-08-30T01:48:39;19.10;99.90
22321;DHT22;11328;53.928;18.522;2023-08-30T01:51:08;19.30;99.90
22321;DHT22;11328;53.928;18.522;2023-08-30T01:53:36;19.30;99.90
22321;DHT22;11328;53.928;18.522;2023-08-30T01:56:04;19.20;99.90
22321;DHT22;11328;53.928;18.522;2023-08-30T01:58:31;19.20;99.90
22321;DHT22;11328;53.928;18.522;2023-08-30T02:01:00;19.20;99.90
22321;DHT22;11328;53.928;18.522;2023-08-30T02:03:27;19.10;99.90
22321;DHT22;11328;53.928;18.522;2023-08-30T02:09:19;19.20;99.90
22321;DHT22;11328;53.928;18.522;2023-08-30T02:11:50;19.00;99.90
22321;DHT22;11328;53.928;18.522;2023-08-30T02:14:20;19.10;99.90
22321;DHT22;11328;53.928;18.522;2023-08-30T02:16:50;19.10;99.90
22321;DHT22;11328;53.928;18.522;2023-08-30T02:19:18;19.10;99.90
22321;DHT22;11328;53.928;18.522;2023-08-30T02:21:48;19.00;99.90
22321;DHT22;11328;53.928;18.522;2023-08-30T02:24:16;19.00;99.90
22321;DHT22;11328;53.928;18.522;2023-08-30T02:26:44;19.00;99.90
22321;DHT22;11328;53.928;18.522;2023-08-30T02:29:11;19.10;99.90
22321;DHT22;11328;53.928;18.522;2023-08-30T02:31:40;19.10;99.90
22321;DHT22;11328;53.928;18.522;2023-08-30T02:34:07;19.20;99.90
22321;DHT22;11328;53.928;18.522;2023-08-30T02:36:35;19.10;99.90
22321;DHT22;11328;53.928;18.522;2023-08-30T02:39:02;19.20;99.90
22321;DHT22;11328;53.928;18.522;2023-08-30T02:41:30;19.30;99.90
22321;DHT22;11328;53.928;18.522;2023-08-30T02:43:57;19.10;99.90
22321;DHT22;11328;53.928;18.522;2023-08-30T02:46:24;19.10;99.90
22321;DHT22;11328;53.928;18.522;2023-08-30T02:48:51;19.20;99.90
22321;DHT22;11328;53.928;18.522;2023-08-30T02:51:19;19.20;99.90
22321;DHT22;11328;53.928;18.522;2023-08-30T02:53:46;19.20;99.90
22321;DHT22;11328;53.928;18.522;2023-08-30T02:56:14;19.20;99.90
22321;DHT22;11328;53.928;18.522;2023-08-30T02:58:41;19.20;99.90
22321;DHT22;11328;53.928;18.522;2023-08-30T03:01:09;19.20;99.90
22321;DHT22;11328;53.928;18.522;2023-08-30T03:03:36;19.10;99.90
22321;DHT22;11328;53.928;18.522;2023-08-30T03:06:03;19.00;99.90
22321;DHT22;11328;53.928;18.522;2023-08-30T03:08:31;19.00;99.90
22321;DHT22;11328;53.928;18.522;2023-08-30T03:11:10;19.00;99.90
22321;DHT22;11328;53.928;18.522;2023-08-30T03:13:39;19.00;99.90
22321;DHT22;11328;53.928;18.522;2023-08-30T03:16:11;19.00;99.90
22321;DHT22;11328;53.928;18.522;2023-08-30T03:18:39;19.20;99.90
22321;DHT22;11328;53.928;18.522;2023-08-30T03:21:08;19.20;99.90
22321;DHT22;11328;53.928;18.522;2023-08-30T03:23:36;19.20;99.90
22321;DHT22;11328;53.928;18.522;2023-08-30T03:26:12;19.20;99.90
22321;DHT22;11328;53.928;18.522;2023-08-30T03:28:43;19.30;99.90
22321;DHT22;11328;53.928;18.522;2023-08-30T03:31:16;19.30;99.90
22321;DHT22;11328;53.928;18.522;2023-08-30T03:33:48;19.30;99.90
22321;DHT22;11328;53.928;18.522;2023-08-30T03:36:17;19.10;99.90
22321;DHT22;11328;53.928;18.522;2023-08-30T03:38:45;19.00;99.90
22321;DHT22;11328;53.928;18.522;2023-08-30T03:41:13;18.90;99.90
22321;DHT22;11328;53.928;18.522;2023-08-30T03:43:41;18.90;99.90
22321;DHT22;11328;53.928;18.522;2023-08-30T03:46:08;18.80;99.90
22321;DHT22;11328;53.928;18.522;2023-08-30T03:48:39;18.80;99.90
22321;DHT22;11328;53.928;18.522;2023-08-30T03:51:06;18.80;99.90
22321;DHT22;11328;53.928;18.522;2023-08-30T03:53:33;18.90;99.90
22321;DHT22;11328;53.928;18.522;2023-08-30T03:56:01;18.80;99.90
22321;DHT22;11328;53.928;18.522;2023-08-30T03:58:30;18.80;99.90
22321;DHT22;11328;53.928;18.522;2023-08-30T04:00:58;18.70;99.90
22321;DHT22;11328;53.928;18.522;2023-08-30T04:03:25;18.60;99.90
22321;DHT22;11328;53.928;18.522;2023-08-30T04:05:56;18.60;99.90
22321;DHT22;11328;53.928;18.522;2023-08-30T04:08:24;18.60;99.90
22321;DHT22;11328;53.928;18.522;2023-08-30T04:10:53;18.70;99.90
22321;DHT22;11328;53.928;18.522;2023-08-30T04:13:21;18.70;99.90
22321;DHT22;11328;53.928;18.522;2023-08-30T04:15:48;18.60;99.90
22321;DHT22;11328;53.928;18.522;2023-08-30T04:18:15;18.60;99.90
22321;DHT22;11328;53.928;18.522;2023-08-30T04:20:44;18.50;99.90
22321;DHT22;11328;53.928;18.522;2023-08-30T04:23:13;18.60;99.90
22321;DHT22;11328;53.928;18.522;2023-08-30T04:25:40;18.70;99.90
22321;DHT22;11328;53.928;18.522;2023-08-30T04:28:08;18.70;99.90
22321;DHT22;11328;53.928;18.522;2023-08-30T04:30:36;18.70;99.90
22321;DHT22;11328;53.928;18.522;2023-08-30T04:33:05;18.70;99.90
22321;DHT22;11328;53.928;18.522;2023-08-30T04:35:32;18.70;99.90
22321;DHT22;11328;53.928;18.522;2023-08-30T04:38:01;18.60;99.90
22321;DHT22;11328;53.928;18.522;2023-08-30T04:40:31;18.60;99.90
22321;DHT22;11328;53.928;18.522;2023-08-30T04:42:59;18.50;99.90
22321;DHT22;11328;53.928;18.522;2023-08-30T04:45:26;18.60;99.90
22321;DHT22;11328;53.928;18.522;2023-08-30T04:47:54;18.60;99.90
22321;DHT22;11328;53.928;18.522;2023-08-30T04:50:22;18.60;99.90
22321;DHT22;11328;53.928;18.522;2023-08-30T04:52:49;18.60;99.90
22321;DHT22;11328;53.928;18.522;2023-08-30T04:55:17;18.60;99.90
22321;DHT22;11328;53.928;18.522;2023-08-30T04:57:45;18.70;99.90
22321;DHT22;11328;53.928;18.522;2023-08-30T05:00:14;18.70;99.90
22321;DHT22;11328;53.928;18.522;2023-08-30T05:02:42;18.80;99.90
22321;DHT22;11328;53.928;18.522;2023-08-30T05:05:10;18.70;99.90
22321;DHT22;11328;53.928;18.522;2023-08-30T05:07:38;18.80;99.90
22321;DHT22;11328;53.928;18.522;2023-08-30T05:10:06;18.80;99.90
22321;DHT22;11328;53.928;18.522;2023-08-30T05:12:34;18.80;99.90
22321;DHT22;11328;53.928;18.522;2023-08-30T05:15:03;18.70;99.90
22321;DHT22;11328;53.928;18.522;2023-08-30T05:17:31;18.60;99.90
22321;DHT22;11328;53.928;18.522;2023-08-30T05:19:58;18.60;99.90
22321;DHT22;11328;53.928;18.522;2023-08-30T05:22:26;18.70;99.90
22321;DHT22;11328;53.928;18.522;2023-08-30T05:24:53;18.80;99.90
22321;DHT22;11328;53.928;18.522;2023-08-30T05:27:20;18.90;99.90
22321;DHT22;11328;53.928;18.522;2023-08-30T05:29:48;19.00;99.90
22321;DHT22;11328;53.928;18.522;2023-08-30T05:32:15;19.00;99.90
22321;DHT22;11328;53.928;18.522;2023-08-30T05:34:42;19.00;99.90
22321;DHT22;11328;53.928;18.522;2023-08-30T05:37:09;19.00;99.90
22321;DHT22;11328;53.928;18.522;2023-08-30T05:39:38;19.00;99.90
22321;DHT22;11328;53.928;18.522;2023-08-30T05:42:05;19.00;99.90
22321;DHT22;11328;53.928;18.522;2023-08-30T05:44:32;19.00;99.90
22321;DHT22;11328;53.928;18.522;2023-08-30T05:46:59;19.00;99.90
22321;DHT22;11328;53.928;18.522;2023-08-30T05:49:27;18.90;99.90
22321;DHT22;11328;53.928;18.522;2023-08-30T05:51:54;18.90;99.90
22321;DHT22;11328;53.928;18.522;2023-08-30T05:54:21;18.90;99.90
22321;DHT22;11328;53.928;18.522;2023-08-30T05:56:48;18.90;99.90
22321;DHT22;11328;53.928;18.522;2023-08-30T05:59:16;18.90;99.90
22321;DHT22;11328;53.928;18.522;2023-08-30T06:01:44;18.90;99.90
22321;DHT22;11328;53.928;18.522;2023-08-30T06:04:11;19.00;99.90
22321;DHT22;11328;53.928;18.522;2023-08-30T06:06:40;18.90;99.90
22321;DHT22;11328;53.928;18.522;2023-08-30T06:09:07;19.00;99.90
22321;DHT22;11328;53.928;18.522;2023-08-30T06:11:34;19.00;99.90
22321;DHT22;11328;53.928;18.522;2023-08-30T06:14:02;19.00;99.90
22321;DHT22;11328;53.928;18.522;2023-08-30T06:16:29;19.00;99.90
22321;DHT22;11328;53.928;18.522;2023-08-30T06:18:57;19.00;99.90
22321;DHT22;11328;53.928;18.522;2023-08-30T06:21:26;19.00;99.90
22321;DHT22;11328;53.928;18.522;2023-08-30T06:23:53;19.00;99.90
22321;DHT22;11328;53.928;18.522;2023-08-30T06:26:21;19.20;99.90
22321;DHT22;11328;53.928;18.522;2023-08-30T06:28:48;19.20;99.90
22321;DHT22;11328;53.928;18.522;2023-08-30T06:31:30;19.20;99.90
22321;DHT22;11328;53.928;18.522;2023-08-30T06:33:59;19.30;99.90
22321;DHT22;11328;53.928;18.522;2023-08-30T06:36:27;19.30;99.90
22321;DHT22;11328;53.928;18.522;2023-08-30T06:38:54;19.30;99.90
22321;DHT22;11328;53.928;18.522;2023-08-30T06:41:21;19.30;99.90
22321;DHT22;11328;53.928;18.522;2023-08-30T06:43:50;19.30;99.90
22321;DHT22;11328;53.928;18.522;2023-08-30T06:46:17;19.40;99.90
22321;DHT22;11328;53.928;18.522;2023-08-30T06:48:44;19.40;99.90
22321;DHT22;11328;53.928;18.522;2023-08-30T06:51:11;19.30;99.90
22321;DHT22;11328;53.928;18.522;2023-08-30T06:53:38;19.40;99.90
22321;DHT22;11328;53.928;18.522;2023-08-30T06:56:05;19.40;99.90
22321;DHT22;11328;53.928;18.522;2023-08-30T06:58:32;19.50;99.90
22321;DHT22;11328;53.928;18.522;2023-08-30T07:01:00;19.50;99.90
22321;DHT22;11328;53.928;18.522;2023-08-30T07:03:30;19.50;99.90
22321;DHT22;11328;53.928;18.522;2023-08-30T07:05:57;19.60;99.90
22321;DHT22;11328;53.928;18.522;2023-08-30T07:08:25;19.50;99.90
22321;DHT22;11328;53.928;18.522;2023-08-30T07:10:54;19.50;99.90
22321;DHT22;11328;53.928;18.522;2023-08-30T07:13:23;19.50;99.90
22321;DHT22;11328;53.928;18.522;2023-08-30T07:15:50;19.60;99.90
22321;DHT22;11328;53.928;18.522;2023-08-30T07:18:17;19.50;99.90
22321;DHT22;11328;53.928;18.522;2023-08-30T07:20:45;19.70;99.90
22321;DHT22;11328;53.928;18.522;2023-08-30T07:23:12;19.70;99.90
22321;DHT22;11328;53.928;18.522;2023-08-30T07:25:39;19.80;99.90
22321;DHT22;11328;53.928;18.522;2023-08-30T07:28:07;19.80;99.90
22321;DHT22;11328;53.928;18.522;2023-08-30T07:30:35;19.80;99.90
22321;DHT22;11328;53.928;18.522;2023-08-30T07:33:03;19.70;99.90
22321;DHT22;11328;53.928;18.522;2023-08-30T07:35:31;19.80;99.90
22321;DHT22;11328;53.928;18.522;2023-08-30T07:37:59;19.70;99.90
22321;DHT22;11328;53.928;18.522;2023-08-30T07:40:27;19.60;99.90
22321;DHT22;11328;53.928;18.522;2023-08-30T07:42:55;19.70;99.90
22321;DHT22;11328;53.928;18.522;2023-08-30T07:45:30;19.70;99.90
22321;DHT22;11328;53.928;18.522;2023-08-30T07:47:57;19.70;99.90
22321;DHT22;11328;53.928;18.522;2023-08-30T07:50:24;19.80;99.90
22321;DHT22;11328;53.928;18.522;2023-08-30T07:52:51;20.00;99.90
22321;DHT22;11328;53.928;18.522;2023-08-30T07:55:19;20.10;99.90
22321;DHT22;11328;53.928;18.522;2023-08-30T07:57:46;20.30;99.90
22321;DHT22;11328;53.928;18.522;2023-08-30T08:00:13;20.30;99.90
22321;DHT22;11328;53.928;18.522;2023-08-30T08:02:41;20.40;99.90
22321;DHT22;11328;53.928;18.522;2023-08-30T08:05:08;20.50;99.90
22321;DHT22;11328;53.928;18.522;2023-08-30T08:07:38;20.50;99.90
22321;DHT22;11328;53.928;18.522;2023-08-30T08:10:07;20.60;99.90
22321;DHT22;11328;53.928;18.522;2023-08-30T08:12:35;20.70;99.90
22321;DHT22;11328;53.928;18.522;2023-08-30T08:15:03;20.80;99.90
22321;DHT22;11328;53.928;18.522;2023-08-30T08:17:31;20.80;99.90
22321;DHT22;11328;53.928;18.522;2023-08-30T08:19:58;20.80;99.90
22321;DHT22;11328;53.928;18.522;2023-08-30T08:22:28;20.70;99.90
22321;DHT22;11328;53.928;18.522;2023-08-30T08:24:55;20.80;99.90
22321;DHT22;11328;53.928;18.522;2023-08-30T08:27:26;20.80;99.90
22321;DHT22;11328;53.928;18.522;2023-08-30T08:29:54;20.90;99.90
22321;DHT22;11328;53.928;18.522;2023-08-30T08:32:22;20.90;99.90
22321;DHT22;11328;53.928;18.522;2023-08-30T08:34:49;21.00;99.90
22321;DHT22;11328;53.928;18.522;2023-08-30T08:37:16;21.00;99.90
22321;DHT22;11328;53.928;18.522;2023-08-30T08:39:43;21.20;99.90
22321;DHT22;11328;53.928;18.522;2023-08-30T08:42:16;21.20;99.90
22321;DHT22;11328;53.928;18.522;2023-08-30T08:44:46;21.20;99.90
22321;DHT22;11328;53.928;18.522;2023-08-30T08:47:16;21.30;99.90
22321;DHT22;11328;53.928;18.522;2023-08-30T08:49:47;21.50;99.90
22321;DHT22;11328;53.928;18.522;2023-08-30T08:52:15;21.60;99.90
22321;DHT22;11328;53.928;18.522;2023-08-30T08:54:58;21.40;99.90
22321;DHT22;11328;53.928;18.522;2023-08-30T08:57:29;21.40;99.90
22321;DHT22;11328;53.928;18.522;2023-08-30T08:59:58;21.30;99.90
22321;DHT22;11328;53.928;18.522;2023-08-30T09:02:25;21.20;99.90
22321;DHT22;11328;53.928;18.522;2023-08-30T09:04:57;21.20;99.90
22321;DHT22;11328;53.928;18.522;2023-08-30T09:07:27;21.30;99.90
22321;DHT22;11328;53.928;18.522;2023-08-30T09:09:57;21.10;99.90
22321;DHT22;11328;53.928;18.522;2023-08-30T09:12:25;21.00;99.90
22321;DHT22;11328;53.928;18.522;2023-08-30T09:14:54;20.80;99.90
22321;DHT22;11328;53.928;18.522;2023-08-30T09:17:23;20.80;99.90
22321;DHT22;11328;53.928;18.522;2023-08-30T09:20:11;20.80;99.90
22321;DHT22;11328;53.928;18.522;2023-08-30T09:22:40;20.90;99.90
22321;DHT22;11328;53.928;18.522;2023-08-30T09:25:10;20.90;99.90
22321;DHT22;11328;53.928;18.522;2023-08-30T09:27:38;21.00;99.90
22321;DHT22;11328;53.928;18.522;2023-08-30T09:30:08;21.00;99.90
22321;DHT22;11328;53.928;18.522;2023-08-30T09:32:41;21.10;99.90
22321;DHT22;11328;53.928;18.522;2023-08-30T09:35:09;21.10;99.90
22321;DHT22;11328;53.928;18.522;2023-08-30T09:37:37;21.10;99.90
22321;DHT22;11328;53.928;18.522;2023-08-30T09:40:05;21.20;99.90
22321;DHT22;11328;53.928;18.522;2023-08-30T09:42:33;21.10;99.90
22321;DHT22;11328;53.928;18.522;2023-08-30T09:45:01;21.10;99.90
22321;DHT22;11328;53.928;18.522;2023-08-30T09:47:29;21.10;99.90
22321;DHT22;11328;53.928;18.522;2023-08-30T09:49:58;21.10;99.90
22321;DHT22;11328;53.928;18.522;2023-08-30T09:52:30;21.20;99.90
22321;DHT22;11328;53.928;18.522;2023-08-30T09:54:58;21.20;99.90
22321;DHT22;11328;53.928;18.522;2023-08-30T09:57:26;21.10;99.90
22321;DHT22;11328;53.928;18.522;2023-08-30T09:59:55;21.00;99.90
22321;DHT22;11328;53.928;18.522;2023-08-30T10:02:24;20.90;99.90
22321;DHT22;11328;53.928;18.522;2023-08-30T10:04:52;20.90;99.90
22321;DHT22;11328;53.928;18.522;2023-08-30T10:07:20;20.90;99.90
22321;DHT22;11328;53.928;18.522;2023-08-30T10:09:50;20.90;99.90
22321;DHT22;11328;53.928;18.522;2023-08-30T10:12:36;20.90;99.90
22321;DHT22;11328;53.928;18.522;2023-08-30T10:15:05;20.90;99.90
22321;DHT22;11328;53.928;18.522;2023-08-30T10:17:32;21.00;99.90
22321;DHT22;11328;53.928;18.522;2023-08-30T10:20:05;21.10;99.90
22321;DHT22;11328;53.928;18.522;2023-08-30T10:22:38;21.20;99.90
22321;DHT22;11328;53.928;18.522;2023-08-30T10:25:20;21.20;99.90
22321;DHT22;11328;53.928;18.522;2023-08-30T10:27:52;21.20;99.90
22321;DHT22;11328;53.928;18.522;2023-08-30T10:30:21;21.10;99.90
22321;DHT22;11328;53.928;18.522;2023-08-30T10:32:50;21.10;99.90
22321;DHT22;11328;53.928;18.522;2023-08-30T10:35:18;21.10;99.90
22321;DHT22;11328;53.928;18.522;2023-08-30T10:37:57;21.10;99.90
22321;DHT22;11328;53.928;18.522;2023-08-30T10:40:26;21.20;99.90
22321;DHT22;11328;53.928;18.522;2023-08-30T10:43:04;21.20;99.90
22321;DHT22;11328;53.928;18.522;2023-08-30T10:45:31;21.20;99.90
22321;DHT22;11328;53.928;18.522;2023-08-30T10:47:59;21.20;99.90
22321;DHT22;11328;53.928;18.522;2023-08-30T10:50:33;21.30;99.90
22321;DHT22;11328;53.928;18.522;2023-08-30T10:53:01;21.30;99.90
22321;DHT22;11328;53.928;18.522;2023-08-30T10:55:28;21.20;99.90
22321;DHT22;11328;53.928;18.522;2023-08-30T10:58:00;21.30;99.90
22321;DHT22;11328;53.928;18.522;2023-08-30T11:00:30;21.30;99.90
22321;DHT22;11328;53.928;18.522;2023-08-30T11:02:58;21.30;99.90
22321;DHT22;11328;53.928;18.522;2023-08-30T11:05:27;21.30;99.90
22321;DHT22;11328;53.928;18.522;2023-08-30T11:07:56;21.20;99.90
22321;DHT22;11328;53.928;18.522;2023-08-30T11:10:24;21.10;99.90
22321;DHT22;11328;53.928;18.522;2023-08-30T11:12:52;21.00;99.90
22321;DHT22;11328;53.928;18.522;2023-08-30T11:15:19;21.00;99.90
22321;DHT22;11328;53.928;18.522;2023-08-30T11:17:48;21.00;99.90
22321;DHT22;11328;53.928;18.522;2023-08-30T11:20:16;20.90;99.90
22321;DHT22;11328;53.928;18.522;2023-08-30T11:22:47;20.90;99.90
22321;DHT22;11328;53.928;18.522;2023-08-30T11:25:16;20.80;99.90
22321;DHT22;11328;53.928;18.522;2023-08-30T11:27:44;20.80;99.90
22321;DHT22;11328;53.928;18.522;2023-08-30T11:30:12;20.90;99.90
22321;DHT22;11328;53.928;18.522;2023-08-30T11:32:41;21.10;99.90
22321;DHT22;11328;53.928;18.522;2023-08-30T11:35:12;21.00;99.90
22321;DHT22;11328;53.928;18.522;2023-08-30T11:37:40;21.10;99.90
22321;DHT22;11328;53.928;18.522;2023-08-30T11:40:12;21.10;99.90
22321;DHT22;11328;53.928;18.522;2023-08-30T11:42:39;21.00;99.90
22321;DHT22;11328;53.928;18.522;2023-08-30T11:45:08;21.10;99.90
22321;DHT22;11328;53.928;18.522;2023-08-30T11:47:36;21.10;99.90
22321;DHT22;11328;53.928;18.522;2023-08-30T11:50:03;21.20;99.90
22321;DHT22;11328;53.928;18.522;2023-08-30T11:52:33;21.30;99.90
22321;DHT22;11328;53.928;18.522;2023-08-30T11:55:01;21.30;99.90
22321;DHT22;11328;53.928;18.522;2023-08-30T11:57:33;21.40;99.90
22321;DHT22;11328;53.928;18.522;2023-08-30T12:00:11;21.50;99.90
22321;DHT22;11328;53.928;18.522;2023-08-30T12:02:40;21.50;99.90
22321;DHT22;11328;53.928;18.522;2023-08-30T12:05:12;21.20;99.90
22321;DHT22;11328;53.928;18.522;2023-08-30T12:07:40;21.00;99.90
22321;DHT22;11328;53.928;18.522;2023-08-30T12:10:12;21.00;99.90
22321;DHT22;11328;53.928;18.522;2023-08-30T12:12:44;20.90;99.90
22321;DHT22;11328;53.928;18.522;2023-08-30T12:15:13;20.80;99.90
22321;DHT22;11328;53.928;18.522;2023-08-30T12:17:45;20.80;99.90
22321;DHT22;11328;53.928;18.522;2023-08-30T12:20:17;20.80;99.90
22321;DHT22;11328;53.928;18.522;2023-08-30T12:22:47;20.70;99.90
22321;DHT22;11328;53.928;18.522;2023-08-30T12:27:46;20.60;99.90
22321;DHT22;11328;53.928;18.522;2023-08-30T12:30:17;20.50;99.90
22321;DHT22;11328;53.928;18.522;2023-08-30T12:32:46;20.30;99.90
22321;DHT22;11328;53.928;18.522;2023-08-30T12:35:14;20.30;99.90
22321;DHT22;11328;53.928;18.522;2023-08-30T12:37:44;20.20;99.90
22321;DHT22;11328;53.928;18.522;2023-08-30T12:40:12;20.20;99.90
22321;DHT22;11328;53.928;18.522;2023-08-30T12:42:39;20.30;99.90
22321;DHT22;11328;53.928;18.522;2023-08-30T12:45:07;20.30;99.90
22321;DHT22;11328;53.928;18.522;2023-08-30T12:47:34;20.40;99.90
22321;DHT22;11328;53.928;18.522;2023-08-30T12:50:03;20.40;99.90
22321;DHT22;11328;53.928;18.522;2023-08-30T12:52:30;20.40;99.90
22321;DHT22;11328;53.928;18.522;2023-08-30T12:54:57;20.50;99.90
22321;DHT22;11328;53.928;18.522;2023-08-30T12:57:25;20.50;99.90
22321;DHT22;11328;53.928;18.522;2023-08-30T12:59:53;20.60;99.90
22321;DHT22;11328;53.928;18.522;2023-08-30T13:02:20;20.70;99.90
22321;DHT22;11328;53.928;18.522;2023-08-30T13:04:47;20.70;99.90
22321;DHT22;11328;53.928;18.522;2023-08-30T13:07:14;20.60;99.90
22321;DHT22;11328;53.928;18.522;2023-08-30T13:09:41;20.50;99.90
22321;DHT22;11328;53.928;18.522;2023-08-30T13:12:09;20.50;99.90
22321;DHT22;11328;53.928;18.522;2023-08-30T13:14:36;20.60;99.90
22321;DHT22;11328;53.928;18.522;2023-08-30T13:17:03;20.60;99.90
22321;DHT22;11328;53.928;18.522;2023-08-30T13:19:30;20.70;99.90
22321;DHT22;11328;53.928;18.522;2023-08-30T13:21:58;20.80;99.90
22321;DHT22;11328;53.928;18.522;2023-08-30T13:24:25;20.80;99.90
22321;DHT22;11328;53.928;18.522;2023-08-30T13:26:55;20.90;99.90
22321;DHT22;11328;53.928;18.522;2023-08-30T13:29:23;20.90;99.90
22321;DHT22;11328;53.928;18.522;2023-08-30T13:31:50;20.90;99.90
22321;DHT22;11328;53.928;18.522;2023-08-30T13:34:17;20.90;99.90
22321;DHT22;11328;53.928;18.522;2023-08-30T13:36:45;20.90;99.90
22321;DHT22;11328;53.928;18.522;2023-08-30T13:39:12;20.80;99.90
22321;DHT22;11328;53.928;18.522;2023-08-30T13:41:39;20.90;99.90
22321;DHT22;11328;53.928;18.522;2023-08-30T13:44:06;20.80;99.90
22321;DHT22;11328;53.928;18.522;2023-08-30T13:46:34;20.80;99.90
22321;DHT22;11328;53.928;18.522;2023-08-30T13:49:01;20.70;99.90
22321;DHT22;11328;53.928;18.522;2023-08-30T13:51:29;20.70;99.90
22321;DHT22;11328;53.928;18.522;2023-08-30T13:53:57;20.80;99.90
22321;DHT22;11328;53.928;18.522;2023-08-30T13:56:24;20.80;99.90
22321;DHT22;11328;53.928;18.522;2023-08-30T13:58:55;20.90;99.90
22321;DHT22;11328;53.928;18.522;2023-08-30T14:01:23;21.10;99.90
22321;DHT22;11328;53.928;18.522;2023-08-30T14:03:50;21.00;99.90
22321;DHT22;11328;53.928;18.522;2023-08-30T14:06:17;21.10;99.90
22321;DHT22;11328;53.928;18.522;2023-08-30T14:08:45;21.30;99.90
22321;DHT22;11328;53.928;18.522;2023-08-30T14:11:12;21.40;99.90
22321;DHT22;11328;53.928;18.522;2023-08-30T14:13:41;21.40;99.90
22321;DHT22;11328;53.928;18.522;2023-08-30T14:16:08;21.40;99.90
22321;DHT22;11328;53.928;18.522;2023-08-30T14:18:37;21.40;99.90
22321;DHT22;11328;53.928;18.522;2023-08-30T14:21:05;21.50;99.90
22321;DHT22;11328;53.928;18.522;2023-08-30T14:23:32;21.40;99.90
22321;DHT22;11328;53.928;18.522;2023-08-30T14:26:04;21.30;99.90
22321;DHT22;11328;53.928;18.522;2023-08-30T14:28:40;21.40;99.90
22321;DHT22;11328;53.928;18.522;2023-08-30T14:31:11;21.30;99.90
22321;DHT22;11328;53.928;18.522;2023-08-30T14:33:42;21.20;99.90
22321;DHT22;11328;53.928;18.522;2023-08-30T14:36:14;21.20;99.90
22321;DHT22;11328;53.928;18.522;2023-08-30T14:38:43;21.10;99.90
22321;DHT22;11328;53.928;18.522;2023-08-30T14:41:10;21.20;99.90
22321;DHT22;11328;53.928;18.522;2023-08-30T14:43:39;21.10;99.90
22321;DHT22;11328;53.928;18.522;2023-08-30T14:46:06;21.10;99.90
22321;DHT22;11328;53.928;18.522;2023-08-30T14:48:39;21.10;99.90
22321;DHT22;11328;53.928;18.522;2023-08-30T14:51:07;21.10;99.90
22321;DHT22;11328;53.928;18.522;2023-08-30T14:53:35;21.10;99.90
22321;DHT22;11328;53.928;18.522;2023-08-30T14:56:03;21.10;99.90
22321;DHT22;11328;53.928;18.522;2023-08-30T14:58:35;20.90;99.90
22321;DHT22;11328;53.928;18.522;2023-08-30T15:01:06;20.80;99.90
22321;DHT22;11328;53.928;18.522;2023-08-30T15:03:33;20.80;99.90
22321;DHT22;11328;53.928;18.522;2023-08-30T15:06:01;20.70;99.90
22321;DHT22;11328;53.928;18.522;2023-08-30T15:08:29;20.80;99.90
22321;DHT22;11328;53.928;18.522;2023-08-30T15:10:57;20.80;99.90
22321;DHT22;11328;53.928;18.522;2023-08-30T15:13:25;20.70;99.90
22321;DHT22;11328;53.928;18.522;2023-08-30T15:15:52;20.50;99.90
22321;DHT22;11328;53.928;18.522;2023-08-30T15:18:20;20.40;99.90
22321;DHT22;11328;53.928;18.522;2023-08-30T15:20:47;20.30;99.90
22321;DHT22;11328;53.928;18.522;2023-08-30T15:23:18;20.30;99.90
22321;DHT22;11328;53.928;18.522;2023-08-30T15:25:46;20.30;99.90
22321;DHT22;11328;53.928;18.522;2023-08-30T15:28:15;20.30;99.90
22321;DHT22;11328;53.928;18.522;2023-08-30T15:30:43;20.20;99.90
22321;DHT22;11328;53.928;18.522;2023-08-30T15:33:12;20.20;99.90